Información del aeropuerto LEIB

Información de pista
Pista 06 Longitud 9186 ft Anchura 148 ft
Elevación 13 ft Umbral 0 ft Rumbo 62
Pista 24 Longitud 9186 ft Anchura 148 ft
Elevación 16 ft Umbral 0 ft Rumbo 242
Frecuencias del aeropuerto
Tipo APP Nombre PALMA APP Frecuencia 118.125 MHZ
Tipo APP Nombre APP Frecuencia 119.8 MHZ
Tipo ATIS Nombre ATIS Frecuencia 117.8 MHZ
Tipo GND Nombre GND Frecuencia 121.8 MHZ
Tipo TWR Nombre TWR Frecuencia 118.5 MHZ
Radioayudas del aeropuerto
Tipo VOR-DME Nombre Ibiza Frecuencia 117800 KHZ
Tipo NDB Nombre Ibiza Frecuencia 394 KHZ
Información meteorológica del aeropuerto y NOTAM
ADDS - METARS form results

(2359 UTC 23 June 2021)
Data provider http://aviationweather.gov/metar/data/
 
METAR text: LEIB 232330Z 00000KT CAVOK 20/15 Q1019 NOSIG
Conditions at: LEIB (IBIZA/ES CODOLA , ES) observed 2330 UTC 23 June 2021
Temperature: 20.0°C (68°F)
Dewpoint: 15.0°C (59°F) [RH = 73%]
Pressure (altimeter): 30.09 inches Hg (1019.0 mb)
Winds: calm
Visibility: 6 or more miles (10+ km)
Ceiling: ceiling and visibility are OK
Clouds: unknown
Weather: no significant weather observed at this time

METAR text: LEIB 232300Z 00000KT CAVOK 20/15 Q1019 NOSIG
Conditions at: LEIB (IBIZA/ES CODOLA , ES) observed 2300 UTC 23 June 2021
Temperature: 20.0°C (68°F)
Dewpoint: 15.0°C (59°F) [RH = 73%]
Pressure (altimeter): 30.09 inches Hg (1019.0 mb)
Winds: calm
Visibility: 6 or more miles (10+ km)
Ceiling: ceiling and visibility are OK
Clouds: unknown
Weather: no significant weather observed at this time

Forecast for: LEIB (IBIZA/ES CODOLA , ES)
Text: TAF LEIB 232000Z 2321/2421 02008KT 9999 FEW020 TX27/2412Z TN20/2406Z
Forecast period: 2100 UTC 23 June 2021 to 0700 UTC 24 June 2021
Forecast type: FROM: standard forecast or significant change
Winds: from the NNE (20 degrees) at 9 MPH (8 knots; 4.1 m/s)
Visibility: 6 or more miles (10+ km)
Ceiling: at least 12,000 feet AGL
Clouds: few clouds at 2000 feet AGL
Weather: no significant weather forecast for this period
Text: BECMG 2407/2409 08012KT
Forecast period: 0700 to 2100 UTC 24 June 2021
Forecast type: BECOMING: Conditions expected to become as follows by 0900 UTC 24 June 2021
Winds: from the E (80 degrees) at 14 MPH (12 knots; 6.2 m/s)
Visibility: 6 or more miles (10+ km)
Ceiling: at least 12,000 feet AGL
Clouds: few clouds at 2000 feet AGL
Weather: no significant weather forecast for this period